createdAt,value
2019-02-10T00:01:01.780Z,95.60
2019-02-10T00:03:28.312Z,95.80
2019-02-10T00:05:54.865Z,96.00
2019-02-10T00:08:21.427Z,96.00
2019-02-10T00:10:47.940Z,95.40
2019-02-10T00:13:24.521Z,95.10
2019-02-10T00:15:51.077Z,94.80
2019-02-10T00:18:17.601Z,94.70
2019-02-10T00:20:44.456Z,94.70
2019-02-10T00:23:12.341Z,94.60
2019-02-10T00:25:38.865Z,94.00
2019-02-10T00:28:05.420Z,93.60
2019-02-10T00:30:31.977Z,93.60
2019-02-10T00:32:58.496Z,93.40
2019-02-10T00:35:25.052Z,93.10
2019-02-10T00:37:51.564Z,92.60
2019-02-10T00:40:18.125Z,92.90
2019-02-10T00:42:44.645Z,93.50
2019-02-10T00:45:11.203Z,93.70
2019-02-10T00:47:37.756Z,93.70
2019-02-10T00:50:04.274Z,93.90
2019-02-10T00:52:31.501Z,94.00
2019-02-10T00:54:58.021Z,94.20
2019-02-10T00:57:24.576Z,94.50
2019-02-10T00:59:51.097Z,94.40
2019-02-10T01:02:17.656Z,94.10
2019-02-10T01:04:44.173Z,94.30
2019-02-10T01:07:10.732Z,94.40
2019-02-10T01:09:37.252Z,95.30
2019-02-10T01:12:03.809Z,95.40
2019-02-10T01:14:31.232Z,95.50
2019-02-10T01:16:57.787Z,96.00
2019-02-10T01:19:24.308Z,96.00
2019-02-10T01:21:50.869Z,96.40
2019-02-10T01:24:17.388Z,96.50
2019-02-10T01:26:43.908Z,96.80
2019-02-10T01:29:10.469Z,96.20
2019-02-10T01:31:36.979Z,96.20
2019-02-10T01:34:03.636Z,96.10
2019-02-10T01:36:30.161Z,96.40
2019-02-10T01:38:56.709Z,96.30
2019-02-10T01:41:23.228Z,96.10
2019-02-10T01:43:49.783Z,96.10
2019-02-10T01:46:16.301Z,95.90
2019-02-10T01:48:42.851Z,95.50
2019-02-10T01:51:09.404Z,95.40
2019-02-10T01:53:36.872Z,95.50
2019-02-10T01:56:03.530Z,95.80
2019-02-10T01:58:30.050Z,95.90
2019-02-10T02:00:56.604Z,96.20
2019-02-10T02:03:23.124Z,96.50
2019-02-10T02:05:49.676Z,96.70
2019-02-10T02:08:16.237Z,96.30
2019-02-10T02:10:42.757Z,95.90
2019-02-10T02:13:09.319Z,96.00
2019-02-10T02:15:35.872Z,96.40
2019-02-10T02:18:02.595Z,96.40
2019-02-10T02:20:29.153Z,96.10
2019-02-10T02:22:55.712Z,95.90
2019-02-10T02:25:22.228Z,96.10
2019-02-10T02:27:48.792Z,96.20
2019-02-10T02:30:15.350Z,96.10
2019-02-10T02:32:42.270Z,96.10
2019-02-10T02:35:08.809Z,96.40
2019-02-10T02:37:35.371Z,96.80
2019-02-10T02:40:01.890Z,97.00
2019-02-10T02:42:28.445Z,97.00
2019-02-10T02:44:54.992Z,97.20
2019-02-10T02:47:21.512Z,96.90
2019-02-10T02:49:48.104Z,96.80
2019-02-10T02:52:16.063Z,96.80
2019-02-10T02:54:42.885Z,96.60
2019-02-10T02:57:09.438Z,96.80
2019-02-10T02:59:36.001Z,96.70
2019-02-10T03:02:02.522Z,96.60
2019-02-10T03:04:29.081Z,96.80
2019-02-10T03:06:55.601Z,96.70
2019-02-10T03:09:22.157Z,96.90
2019-02-10T03:11:48.677Z,97.00
2019-02-10T03:14:15.232Z,97.40
2019-02-10T03:16:41.750Z,97.50
2019-02-10T03:19:08.301Z,97.30
2019-02-10T03:21:34.820Z,97.00
2019-02-10T03:24:01.378Z,97.30
2019-02-10T03:26:27.892Z,97.50
2019-02-10T03:28:54.448Z,97.60
2019-02-10T03:31:20.966Z,97.40
2019-02-10T03:33:47.524Z,97.80
2019-02-10T03:36:14.035Z,97.60
2019-02-10T03:38:40.592Z,97.40
2019-02-10T03:41:07.104Z,97.50
2019-02-10T03:43:33.661Z,97.50
2019-02-10T03:46:00.177Z,97.20
2019-02-10T03:48:26.732Z,97.10
2019-02-10T03:50:53.325Z,97.00
2019-02-10T03:53:19.844Z,96.80
2019-02-10T03:55:46.393Z,96.70
2019-02-10T03:58:12.912Z,96.50
2019-02-10T04:00:39.470Z,96.00
2019-02-10T04:03:05.984Z,96.20
2019-02-10T04:05:32.544Z,96.50
2019-02-10T04:07:59.100Z,96.60
2019-02-10T04:10:25.621Z,96.70
2019-02-10T04:12:52.176Z,96.20
2019-02-10T04:15:18.800Z,96.10
2019-02-10T04:17:45.349Z,95.80
2019-02-10T04:20:11.943Z,96.20
2019-02-10T04:22:38.455Z,96.20
2019-02-10T04:25:05.620Z,96.20
2019-02-10T04:27:32.138Z,96.20
2019-02-10T04:29:58.697Z,96.20
2019-02-10T04:32:25.216Z,96.30
2019-02-10T04:34:51.760Z,96.10
2019-02-10T04:37:18.311Z,95.90
2019-02-10T04:39:44.847Z,95.90
2019-02-10T04:42:11.391Z,96.30
2019-02-10T04:44:37.904Z,96.20
2019-02-10T04:47:04.562Z,96.30
2019-02-10T04:49:31.071Z,96.30
2019-02-10T04:51:57.668Z,96.30
2019-02-10T04:54:24.223Z,96.30
2019-02-10T04:56:50.747Z,95.80
2019-02-10T04:59:17.292Z,95.80
2019-02-10T05:01:43.813Z,95.50
2019-02-10T05:04:10.371Z,95.60
2019-02-10T05:06:36.888Z,95.70
2019-02-10T05:09:04.531Z,95.50
2019-02-10T05:11:31.055Z,95.50
2019-02-10T05:13:57.618Z,95.60
2019-02-10T05:16:24.136Z,95.60
2019-02-10T05:18:50.657Z,95.10
2019-02-10T05:21:17.225Z,95.50
2019-02-10T05:23:43.763Z,95.40
2019-02-10T05:26:10.320Z,95.20
2019-02-10T05:28:36.832Z,95.70
2019-02-10T05:31:03.429Z,96.10
2019-02-10T05:33:29.916Z,96.30
2019-02-10T05:35:56.477Z,96.30
2019-02-10T05:38:23.037Z,96.10
2019-02-10T05:40:49.556Z,96.30
2019-02-10T05:43:16.118Z,96.60
2019-02-10T05:45:42.680Z,96.00
2019-02-10T05:48:09.204Z,96.10
2019-02-10T05:50:35.810Z,96.20
2019-02-10T05:53:02.403Z,96.20
2019-02-10T05:55:28.934Z,96.50
2019-02-10T05:57:55.497Z,96.40
2019-02-10T06:00:22.064Z,96.40
2019-02-10T06:02:48.584Z,95.70
2019-02-10T06:05:16.959Z,95.40
2019-02-10T06:07:43.473Z,95.00
2019-02-10T06:10:09.993Z,94.60
2019-02-10T06:12:36.572Z,94.40
2019-02-10T06:15:03.842Z,94.10
2019-02-10T06:17:30.366Z,94.10
2019-02-10T06:19:56.929Z,94.10
2019-02-10T06:22:24.604Z,94.00
2019-02-10T06:24:51.130Z,93.90
2019-02-10T06:27:17.689Z,93.60
2019-02-10T06:29:44.257Z,93.10
2019-02-10T06:32:10.785Z,93.10
2019-02-10T06:34:37.357Z,92.60
2019-02-10T06:37:03.921Z,92.10
2019-02-10T06:39:30.445Z,91.50
2019-02-10T06:41:57.008Z,91.20
2019-02-10T06:44:23.572Z,91.20
2019-02-10T06:46:50.100Z,90.90
2019-02-10T06:49:16.669Z,90.50
2019-02-10T06:51:43.237Z,90.00
2019-02-10T06:54:09.800Z,89.50
2019-02-10T06:56:36.404Z,89.80
2019-02-10T06:59:02.965Z,90.10
2019-02-10T07:01:31.296Z,90.30
2019-02-10T07:04:02.645Z,90.50
2019-02-10T07:06:29.601Z,90.40
2019-02-10T07:08:56.135Z,90.70
2019-02-10T07:11:22.692Z,90.70
2019-02-10T07:13:51.070Z,90.80
2019-02-10T07:16:22.184Z,90.70
2019-02-10T07:18:59.464Z,90.50
2019-02-10T07:21:28.779Z,90.00
2019-02-10T07:24:03.218Z,89.30
2019-02-10T07:26:34.589Z,89.40
2019-02-10T07:29:01.216Z,88.50
2019-02-10T07:31:27.786Z,88.40
2019-02-10T07:33:59.014Z,88.10
2019-02-10T07:36:30.220Z,87.70
2019-02-10T07:39:10.372Z,87.30
2019-02-10T07:41:38.733Z,87.40
2019-02-10T07:44:10.217Z,87.40
2019-02-10T07:46:56.773Z,87.20
2019-02-10T07:49:34.156Z,87.20
2019-02-10T07:52:02.521Z,87.30
2019-02-10T07:54:42.168Z,87.10
2019-02-10T07:57:07.230Z,87.00
2019-02-10T07:59:52.186Z,86.60
2019-02-10T08:02:20.545Z,86.00
2019-02-10T08:04:54.925Z,85.90
2019-02-10T08:07:23.280Z,85.40
2019-02-10T08:09:54.769Z,84.80
2019-02-10T08:12:23.180Z,84.70
2019-02-10T08:14:54.601Z,84.00
2019-02-10T08:17:41.177Z,83.50
2019-02-10T08:20:09.559Z,82.50
2019-02-10T08:22:46.844Z,82.20
2019-02-10T08:25:18.102Z,82.20
2019-02-10T08:27:55.588Z,81.30
2019-02-10T08:30:30.084Z,80.00
2019-02-10T08:33:15.089Z,80.10
2019-02-10T08:35:46.479Z,78.40
2019-02-10T08:38:14.789Z,78.90
2019-02-10T08:40:43.829Z,78.20
2019-02-10T08:43:28.976Z,78.80
2019-02-10T08:46:00.353Z,79.50
2019-02-10T08:48:34.740Z,80.30
2019-02-10T08:51:19.525Z,80.80
2019-02-10T08:53:46.080Z,81.10
2019-02-10T08:56:12.644Z,80.70
2019-02-10T08:58:39.240Z,79.30
2019-02-10T09:01:05.773Z,79.50
2019-02-10T09:03:32.328Z,78.30
2019-02-10T09:05:58.905Z,77.60
2019-02-10T09:08:25.475Z,77.90
2019-02-10T09:10:52.036Z,79.00
2019-02-10T09:13:18.557Z,78.60
2019-02-10T09:15:45.084Z,78.50
2019-02-10T09:18:11.640Z,78.00
2019-02-10T09:20:38.212Z,78.20
2019-02-10T09:23:04.699Z,78.10
2019-02-10T09:25:31.276Z,77.90
2019-02-10T09:27:57.776Z,77.80
2019-02-10T09:30:24.334Z,79.00
2019-02-10T09:32:50.871Z,79.60
2019-02-10T09:35:17.429Z,79.60
2019-02-10T09:37:43.949Z,80.60
2019-02-10T09:40:10.903Z,81.00
2019-02-10T09:42:37.429Z,79.70
2019-02-10T09:45:05.488Z,79.90
2019-02-10T09:47:32.008Z,79.10
2019-02-10T09:49:58.572Z,79.70
2019-02-10T09:52:25.098Z,79.50
2019-02-10T09:54:51.657Z,80.30
2019-02-10T09:57:18.228Z,81.10
2019-02-10T09:59:44.781Z,80.90
2019-02-10T10:02:11.310Z,81.00
2019-02-10T10:04:37.878Z,81.30
2019-02-10T10:07:04.418Z,80.70
2019-02-10T10:09:30.976Z,80.60
2019-02-10T10:11:57.534Z,79.90
2019-02-10T10:14:30.632Z,80.30
2019-02-10T10:16:52.506Z,80.30
2019-02-10T10:19:19.047Z,79.70
2019-02-10T10:21:45.585Z,78.70
2019-02-10T10:24:12.144Z,78.10
2019-02-10T10:26:39.080Z,77.20
2019-02-10T10:29:05.601Z,76.90
2019-02-10T10:31:32.124Z,76.60
2019-02-10T10:33:58.687Z,76.90
2019-02-10T10:36:25.236Z,77.30
2019-02-10T10:38:51.761Z,77.10
2019-02-10T10:41:18.325Z,76.80
2019-02-10T10:43:44.880Z,77.00
2019-02-10T10:46:11.404Z,78.00
2019-02-10T10:48:37.966Z,78.10
2019-02-10T10:51:04.532Z,78.50
2019-02-10T10:53:31.053Z,78.10
2019-02-10T10:55:58.819Z,77.90
2019-02-10T10:58:25.577Z,76.90
2019-02-10T11:00:52.185Z,76.30
2019-02-10T11:03:18.715Z,75.60
2019-02-10T11:05:45.268Z,74.40
2019-02-10T11:08:11.820Z,75.00
2019-02-10T11:10:38.380Z,74.80
2019-02-10T11:13:04.905Z,75.10
2019-02-10T11:15:31.464Z,75.10
2019-02-10T11:17:57.987Z,74.00
2019-02-10T11:20:24.545Z,74.60
2019-02-10T11:22:51.059Z,74.50
2019-02-10T11:25:17.621Z,73.80
2019-02-10T11:27:44.140Z,73.90
2019-02-10T11:30:11.496Z,74.60
2019-02-10T11:32:38.017Z,73.90
2019-02-10T11:35:05.086Z,73.20
2019-02-10T11:37:31.641Z,73.60
2019-02-10T11:39:58.161Z,74.20
2019-02-10T11:42:24.712Z,73.70
2019-02-10T11:44:51.267Z,72.80
2019-02-10T11:47:17.793Z,72.40
2019-02-10T11:49:44.344Z,72.20
2019-02-10T11:52:10.860Z,72.20
2019-02-10T11:54:37.414Z,71.30
2019-02-10T11:57:03.924Z,70.30
2019-02-10T11:59:30.620Z,70.30
2019-02-10T12:01:57.144Z,69.60
2019-02-10T12:04:23.699Z,68.20
2019-02-10T12:06:50.216Z,68.00
2019-02-10T12:09:16.787Z,67.50
2019-02-10T12:11:43.335Z,67.80
2019-02-10T12:14:09.857Z,67.80
2019-02-10T12:16:36.416Z,67.60
2019-02-10T12:19:03.082Z,67.20
2019-02-10T12:21:29.597Z,68.60
2019-02-10T12:23:56.153Z,68.70
2019-02-10T12:26:22.711Z,69.00
2019-02-10T12:28:49.229Z,69.90
2019-02-10T12:31:15.791Z,69.10
2019-02-10T12:33:42.344Z,69.10
2019-02-10T12:36:08.864Z,68.90
2019-02-10T12:38:36.328Z,68.70
2019-02-10T12:41:02.889Z,69.00
2019-02-10T12:43:29.408Z,71.00
2019-02-10T12:45:55.992Z,70.40
2019-02-10T12:48:22.787Z,70.60
2019-02-10T12:50:49.283Z,70.70
2019-02-10T12:53:15.921Z,70.90
2019-02-10T12:55:42.484Z,70.70
2019-02-10T12:58:09.008Z,69.60
2019-02-10T13:00:35.617Z,69.60
2019-02-10T13:03:02.212Z,70.50
2019-02-10T13:05:28.780Z,70.40
2019-02-10T13:07:56.741Z,69.20
2019-02-10T13:10:24.521Z,69.90
2019-02-10T13:12:53.200Z,68.90
2019-02-10T13:15:20.044Z,69.40
2019-02-10T13:17:46.852Z,69.80
2019-02-10T13:20:13.433Z,67.90
2019-02-10T13:22:40.126Z,67.60
2019-02-10T13:25:09.967Z,67.40
2019-02-10T13:27:36.608Z,66.80
2019-02-10T13:30:04.976Z,67.60
2019-02-10T13:32:31.588Z,66.70
2019-02-10T13:34:58.133Z,65.90
2019-02-10T13:37:24.778Z,67.00
2019-02-10T13:39:53.909Z,67.20
2019-02-10T13:42:22.169Z,65.70
2019-02-10T13:44:49.175Z,65.00
2019-02-10T13:47:16.435Z,65.30
2019-02-10T13:49:43.105Z,65.30
2019-02-10T13:52:09.667Z,65.50
2019-02-10T13:54:36.192Z,66.80
2019-02-10T13:57:02.757Z,66.70
2019-02-10T13:59:29.312Z,66.80
2019-02-10T14:01:55.873Z,67.50
2019-02-10T14:04:22.455Z,67.60
2019-02-10T14:06:49.025Z,68.50
2019-02-10T14:09:15.545Z,69.10
2019-02-10T14:11:42.759Z,68.90
2019-02-10T14:14:11.675Z,68.60
2019-02-10T14:16:38.889Z,69.40
2019-02-10T14:19:06.084Z,68.60
2019-02-10T14:21:33.120Z,70.80
2019-02-10T14:24:00.007Z,68.60
2019-02-10T14:26:27.111Z,68.00
2019-02-10T14:28:54.242Z,67.30
2019-02-10T14:31:21.550Z,67.20
2019-02-10T14:33:48.744Z,67.40
2019-02-10T14:36:15.839Z,69.60
2019-02-10T14:38:42.830Z,70.00
2019-02-10T14:41:09.457Z,71.50
2019-02-10T14:43:38.685Z,70.40
2019-02-10T14:46:05.200Z,71.50
2019-02-10T14:48:31.761Z,72.60
2019-02-10T14:50:58.321Z,73.60
2019-02-10T14:53:24.836Z,71.80
2019-02-10T14:55:51.397Z,74.00
2019-02-10T14:58:17.956Z,73.10
2019-02-10T15:00:44.512Z,73.50
2019-02-10T15:03:11.114Z,74.50
2019-02-10T15:05:37.869Z,75.20
2019-02-10T15:08:04.383Z,75.00
2019-02-10T15:10:30.967Z,75.00
2019-02-10T15:12:57.520Z,74.40
2019-02-10T15:15:24.041Z,75.50
2019-02-10T15:17:50.597Z,73.50
2019-02-10T15:20:17.152Z,73.80
2019-02-10T15:22:43.673Z,73.40
2019-02-10T15:25:10.633Z,73.50
2019-02-10T15:27:37.205Z,75.30
2019-02-10T15:30:05.525Z,75.60
2019-02-10T15:32:32.083Z,75.30
2019-02-10T15:34:58.641Z,76.50
2019-02-10T15:37:25.161Z,76.20
2019-02-10T15:39:51.719Z,76.20
2019-02-10T15:42:20.532Z,76.20
2019-02-10T15:44:47.053Z,76.40
2019-02-10T15:47:13.616Z,76.20
2019-02-10T15:49:40.476Z,78.30
2019-02-10T15:52:06.997Z,79.70
2019-02-10T15:54:33.629Z,79.60
2019-02-10T15:57:00.253Z,79.60
2019-02-10T15:59:26.774Z,80.50
2019-02-10T16:01:53.332Z,81.00
2019-02-10T16:04:19.901Z,81.00
2019-02-10T16:06:46.451Z,81.30
2019-02-10T16:09:13.013Z,82.00
2019-02-10T16:11:41.120Z,82.40
2019-02-10T16:14:07.609Z,81.60
2019-02-10T16:16:34.164Z,81.40
2019-02-10T16:19:00.721Z,81.00
2019-02-10T16:21:27.237Z,82.50
2019-02-10T16:23:53.795Z,82.00
2019-02-10T16:26:20.317Z,81.80
2019-02-10T16:28:46.881Z,81.10
2019-02-10T16:31:13.402Z,81.80
2019-02-10T16:33:39.961Z,82.10
2019-02-10T16:36:06.479Z,82.70
2019-02-10T16:38:33.033Z,82.60
2019-02-10T16:41:06.113Z,81.80
2019-02-10T16:43:27.869Z,81.80
2019-02-10T16:45:54.424Z,82.30
2019-02-10T16:48:20.985Z,82.10
2019-02-10T16:50:47.509Z,82.20
2019-02-10T16:53:14.070Z,83.30
2019-02-10T16:55:40.628Z,83.30
2019-02-10T16:58:07.148Z,84.70
2019-02-10T17:00:33.704Z,84.50
2019-02-10T17:03:00.260Z,85.40
2019-02-10T17:05:26.817Z,85.40
2019-02-10T17:07:53.414Z,84.40
2019-02-10T17:10:20.272Z,85.20
2019-02-10T17:12:46.793Z,84.50
2019-02-10T17:15:13.463Z,85.10
2019-02-10T17:17:40.051Z,84.80
2019-02-10T17:20:07.872Z,85.10
2019-02-10T17:22:34.432Z,85.40
2019-02-10T17:25:00.992Z,86.90
2019-02-10T17:27:27.508Z,86.90
2019-02-10T17:29:54.071Z,87.10
2019-02-10T17:32:20.629Z,87.50
2019-02-10T17:34:47.154Z,87.80
2019-02-10T17:37:13.703Z,87.90
2019-02-10T17:39:40.265Z,87.70
2019-02-10T17:42:06.790Z,87.70
2019-02-10T17:44:33.341Z,88.20
2019-02-10T17:47:01.096Z,88.30
2019-02-10T17:49:27.621Z,88.00
2019-02-10T17:51:54.175Z,87.80
2019-02-10T17:54:20.733Z,87.50
2019-02-10T17:56:47.253Z,87.40
2019-02-10T17:59:13.814Z,87.20
2019-02-10T18:01:40.368Z,87.40
2019-02-10T18:04:06.891Z,87.40
2019-02-10T18:06:33.495Z,87.40
2019-02-10T18:09:00.120Z,87.70
2019-02-10T18:11:31.166Z,86.50
2019-02-10T18:13:55.000Z,87.50
2019-02-10T18:16:29.507Z,92.30
2019-02-10T18:18:57.864Z,95.80
2019-02-10T18:21:31.740Z,98.50
2019-02-10T18:24:00.101Z,98.50
2019-02-10T18:26:37.210Z,98.50
2019-02-10T18:29:20.189Z,98.50
2019-02-10T18:31:48.549Z,98.50
2019-02-10T18:34:17.291Z,98.50
2019-02-10T18:36:55.881Z,98.50
2019-02-10T18:39:27.614Z,98.50
2019-02-10T18:41:56.124Z,98.50
2019-02-10T18:44:24.481Z,98.50
2019-02-10T18:47:09.016Z,98.50
2019-02-10T18:49:40.389Z,98.50
2019-02-10T18:52:26.936Z,98.50
2019-02-10T18:55:06.873Z,98.50
2019-02-10T18:57:37.735Z,98.50
2019-02-10T19:00:08.531Z,98.50
2019-02-10T19:02:53.772Z,98.50
2019-02-10T19:05:38.605Z,98.50
2019-02-10T19:08:06.962Z,98.50
2019-02-10T19:10:51.737Z,98.50
2019-02-10T19:13:22.351Z,98.50
2019-02-10T19:15:53.520Z,98.50
2019-02-10T19:18:31.055Z,98.50
2019-02-10T19:20:59.395Z,98.50
2019-02-10T19:23:44.410Z,98.50
2019-02-10T19:26:15.750Z,98.50
2019-02-10T19:28:46.977Z,98.50
2019-02-10T19:31:31.427Z,98.50
2019-02-10T19:34:02.805Z,98.50
2019-02-10T19:36:31.461Z,98.50
2019-02-10T19:38:59.786Z,98.50
2019-02-10T19:41:28.149Z,98.50
2019-02-10T19:43:56.476Z,98.50
2019-02-10T19:46:42.565Z,98.50
2019-02-10T19:49:25.516Z,98.50
2019-02-10T19:51:56.897Z,98.50
2019-02-10T19:54:27.769Z,98.50
2019-02-10T19:57:14.377Z,98.50
2019-02-10T19:59:42.745Z,98.50
2019-02-10T20:02:11.109Z,98.50
2019-02-10T20:04:45.320Z,98.30
2019-02-10T20:07:13.841Z,97.70
2019-02-10T20:09:53.761Z,97.30
2019-02-10T20:12:22.388Z,97.50
2019-02-10T20:15:00.966Z,97.30
2019-02-10T20:17:37.040Z,96.60
2019-02-10T20:20:15.744Z,96.30
2019-02-10T20:22:49.605Z,96.30
2019-02-10T20:25:17.969Z,96.70
2019-02-10T20:28:02.681Z,96.70
2019-02-10T20:30:40.304Z,96.90
2019-02-10T20:33:21.602Z,96.50
2019-02-10T20:35:49.941Z,96.10
2019-02-10T20:38:20.833Z,96.20
2019-02-10T20:40:58.721Z,95.80
2019-02-10T20:43:27.079Z,95.60
2019-02-10T20:46:01.826Z,95.50
2019-02-10T20:48:35.940Z,95.40
2019-02-10T20:51:10.131Z,94.70
2019-02-10T20:53:44.444Z,94.60
2019-02-10T20:56:12.808Z,94.10
2019-02-10T20:58:41.168Z,93.50
2019-02-10T21:01:09.620Z,93.20
2019-02-10T21:03:43.669Z,93.30
2019-02-10T21:06:14.542Z,92.80
2019-02-10T21:08:45.749Z,92.00
2019-02-10T21:11:14.108Z,91.80
2019-02-10T21:13:51.210Z,92.00
2019-02-10T21:16:25.328Z,92.20
2019-02-10T21:19:11.566Z,92.80
2019-02-10T21:21:45.715Z,93.50
2019-02-10T21:24:14.068Z,93.80
2019-02-10T21:26:57.283Z,94.50
2019-02-10T21:29:42.172Z,94.70
2019-02-10T21:32:13.484Z,95.80
2019-02-10T21:34:42.204Z,96.00
2019-02-10T21:37:10.788Z,96.00
2019-02-10T21:39:39.114Z,95.90
2019-02-10T21:42:07.579Z,96.10
2019-02-10T21:44:38.587Z,96.40
2019-02-10T21:47:13.067Z,96.40
2019-02-10T21:49:39.652Z,96.10
2019-02-10T21:52:06.180Z,96.00
2019-02-10T21:54:32.737Z,95.60
2019-02-10T21:56:59.261Z,95.30
2019-02-10T21:59:25.824Z,94.90
2019-02-10T22:01:53.775Z,94.70
2019-02-10T22:04:20.544Z,94.00
2019-02-10T22:06:47.069Z,93.60
2019-02-10T22:09:13.624Z,92.80
2019-02-10T22:11:40.144Z,93.50
2019-02-10T22:14:06.713Z,93.10
2019-02-10T22:16:33.237Z,93.20
2019-02-10T22:18:59.788Z,93.60
2019-02-10T22:21:26.308Z,93.20
2019-02-10T22:23:52.871Z,92.30
2019-02-10T22:26:19.384Z,92.30
2019-02-10T22:28:45.948Z,92.70
2019-02-10T22:31:18.654Z,92.70
2019-02-10T22:33:40.820Z,92.70
2019-02-10T22:36:07.388Z,92.40
2019-02-10T22:38:33.908Z,92.00
2019-02-10T22:41:00.464Z,91.60
2019-02-10T22:43:27.025Z,90.50
2019-02-10T22:45:54.111Z,90.60
2019-02-10T22:48:20.696Z,90.20
2019-02-10T22:50:47.316Z,89.30
2019-02-10T22:53:13.836Z,89.70
2019-02-10T22:55:40.395Z,89.70
2019-02-10T22:58:06.913Z,90.20
2019-02-10T23:00:50.721Z,90.70
2019-02-10T23:03:17.334Z,90.70
2019-02-10T23:05:44.179Z,90.30
2019-02-10T23:08:10.941Z,89.90
2019-02-10T23:10:37.448Z,89.40
2019-02-10T23:13:04.004Z,89.50
2019-02-10T23:15:30.520Z,89.70
2019-02-10T23:17:57.077Z,88.80
2019-02-10T23:20:23.590Z,89.30
2019-02-10T23:22:51.060Z,89.50
2019-02-10T23:25:17.576Z,89.10
2019-02-10T23:27:44.132Z,89.50
2019-02-10T23:30:10.685Z,89.50
2019-02-10T23:32:37.204Z,90.20
2019-02-10T23:35:04.752Z,89.20
2019-02-10T23:37:31.280Z,88.60
2019-02-10T23:39:57.940Z,88.60
2019-02-10T23:42:24.462Z,89.10
2019-02-10T23:44:51.016Z,89.20
2019-02-10T23:47:17.532Z,88.90
2019-02-10T23:49:44.088Z,88.90
2019-02-10T23:52:10.645Z,88.50
2019-02-10T23:54:37.165Z,88.10
2019-02-10T23:57:03.722Z,88.50
2019-02-10T23:59:30.636Z,88.60
